Time;durP1;ratioP1;P1;durP2;ratioP2;P2;SDS_P1;SDS_P2;PMS_P1;PMS_P2;Temp;Humidity;BMP_temperature;BMP_pressure;BME280_temperature;BME280_humidity;BME280_pressure;Samples;Min_cycle;Max_cycle;Signal;HPM_P1;HPM_P2
2022/09/26 00:00:52;;;;;;;3.72;0.90;;;12.40;99.90;;;;;;5067562;28;20091;-65
2022/09/26 00:03:19;;;;;;;4.07;1.00;;;12.40;99.90;;;;;;5052632;28;20045;-65
2022/09/26 00:05:48;;;;;;;3.45;1.23;;;12.30;99.90;;;;;;5064822;28;20052;-65
2022/09/26 00:08:14;;;;;;;3.40;1.10;;;12.30;99.90;;;;;;5034956;28;20061;-65
2022/09/26 00:10:41;;;;;;;5.13;1.08;;;12.30;99.90;;;;;;5044839;28;20075;-65
2022/09/26 00:13:08;;;;;;;7.35;2.28;;;12.40;99.90;;;;;;5054574;28;20048;-65
2022/09/26 00:15:35;;;;;;;4.00;1.40;;;12.30;99.90;;;;;;5060438;28;20066;-66
2022/09/26 00:18:01;;;;;;;7.47;0.90;;;12.30;99.90;;;;;;5056574;28;20124;-65
2022/09/26 00:20:28;;;;;;;4.00;0.90;;;12.30;99.90;;;;;;5038955;28;20070;-66
2022/09/26 00:22:55;;;;;;;4.72;1.20;;;12.20;99.90;;;;;;5039345;28;20049;-64
2022/09/26 00:25:22;;;;;;;5.03;1.42;;;12.20;99.90;;;;;;5038599;28;20519;-64
2022/09/26 00:27:49;;;;;;;5.88;1.23;;;12.20;99.90;;;;;;5063464;28;20584;-64
2022/09/26 00:30:15;;;;;;;3.08;1.10;;;12.20;99.90;;;;;;5037721;28;20037;-64
2022/09/26 00:32:42;;;;;;;5.43;1.35;;;12.20;99.90;;;;;;5060992;28;20514;-65
2022/09/26 00:35:09;;;;;;;7.93;1.00;;;12.20;99.90;;;;;;5052992;28;20054;-65
2022/09/26 00:37:36;;;;;;;4.60;1.02;;;12.20;99.90;;;;;;5043321;28;20411;-65
2022/09/26 00:40:03;;;;;;;4.05;1.10;;;12.20;99.90;;;;;;5053871;28;20499;-66
2022/09/26 00:42:29;;;;;;;4.80;1.10;;;12.20;99.90;;;;;;5046241;28;20041;-65
2022/09/26 00:44:56;;;;;;;8.48;1.00;;;12.20;99.90;;;;;;5034518;28;20469;-65
2022/09/26 00:47:37;;;;;;;5.10;1.15;;;12.10;99.90;;;;;;5046645;28;20055;-65
2022/09/26 00:50:18;;;;;;;8.68;0.98;;;12.20;99.90;;;;;;5052066;28;20415;-65
2022/09/26 00:52:55;;;;;;;6.63;2.38;;;12.10;99.90;;;;;;5037279;28;20044;-65
2022/09/26 00:55:23;;;;;;;4.80;1.30;;;12.10;99.90;;;;;;5055478;28;20152;-65
2022/09/26 00:57:58;;;;;;;3.13;0.95;;;12.10;99.90;;;;;;5041843;28;20060;-65
2022/09/26 01:00:24;;;;;;;3.75;0.85;;;12.10;99.90;;;;;;5054088;28;20135;-65
2022/09/26 01:02:51;;;;;;;4.47;0.85;;;12.10;99.90;;;;;;5041446;28;20132;-65
2022/09/26 01:05:19;;;;;;;4.50;1.13;;;12.00;99.90;;;;;;5054109;28;20049;-65
2022/09/26 01:07:46;;;;;;;5.25;1.27;;;12.00;99.90;;;;;;5033985;28;20049;-65
2022/09/26 01:10:15;;;;;;;6.57;1.27;;;12.00;99.90;;;;;;5053659;28;20049;-65
2022/09/26 01:12:42;;;;;;;3.10;0.95;;;12.00;99.90;;;;;;5044141;28;20511;-66
2022/09/26 01:15:09;;;;;;;7.25;1.33;;;12.00;99.90;;;;;;5069687;28;20082;-66
2022/09/26 01:17:37;;;;;;;3.03;1.30;;;12.00;99.90;;;;;;5046052;28;20063;-66
2022/09/26 01:20:19;;;;;;;3.47;1.10;;;12.00;99.90;;;;;;5033097;28;20132;-65
2022/09/26 01:22:58;;;;;;;7.40;1.48;;;12.00;99.90;;;;;;5046393;28;20056;-66
2022/09/26 01:25:54;;;;;;;6.25;1.25;;;12.00;99.90;;;;;;5068543;28;20053;-65
2022/09/26 01:28:47;;;;;;;4.32;1.40;;;12.00;99.90;;;;;;5028662;28;20052;-64
2022/09/26 01:31:27;;;;;;;2.03;1.40;;;12.00;99.90;;;;;;5052877;28;20055;-64
2022/09/26 01:34:06;;;;;;;5.25;1.80;;;12.00;99.90;;;;;;5044695;28;20056;-65
2022/09/26 01:36:48;;;;;;;4.10;1.25;;;12.00;99.90;;;;;;5058627;28;20045;-65
2022/09/26 01:39:52;;;;;;;2.85;1.10;;;12.00;99.90;;;;;;5070595;28;20389;-65
2022/09/26 01:42:46;;;;;;;8.20;1.30;;;12.00;99.90;;;;;;4985210;28;20051;-66
2022/09/26 01:45:19;;;;;;;2.47;1.13;;;12.00;99.90;;;;;;5010908;28;20055;-65
2022/09/26 01:48:04;;;;;;;2.55;1.27;;;12.00;99.90;;;;;;5040508;28;20045;-65
2022/09/26 01:50:42;;;;;;;3.50;1.50;;;12.00;99.90;;;;;;5048087;28;20056;-65
2022/09/26 01:53:14;;;;;;;6.50;1.60;;;12.00;99.90;;;;;;5054595;28;20123;-65
2022/09/26 01:56:04;;;;;;;6.05;0.77;;;12.00;99.90;;;;;;5032115;28;20045;-65
2022/09/26 01:58:37;;;;;;;5.93;1.17;;;12.00;99.90;;;;;;5039003;28;20488;-65
2022/09/26 02:01:07;;;;;;;5.45;0.90;;;12.00;99.90;;;;;;5033899;28;20049;-65
2022/09/26 02:03:37;;;;;;;3.63;1.17;;;12.00;99.90;;;;;;5039911;28;20075;-65
2022/09/26 02:06:12;;;;;;;9.55;1.80;;;12.00;99.90;;;;;;5066363;28;20127;-65
2022/09/26 02:08:52;;;;;;;7.80;1.48;;;12.10;99.90;;;;;;5040639;28;20063;-65
2022/09/26 02:11:20;;;;;;;2.58;0.93;;;12.10;99.90;;;;;;5053209;28;20055;-65
2022/09/26 02:13:54;;;;;;;3.80;1.17;;;12.00;99.90;;;;;;5046239;28;20041;-65
2022/09/26 02:16:35;;;;;;;4.25;1.58;;;12.00;99.90;;;;;;5054057;28;20056;-65
2022/09/26 02:19:06;;;;;;;6.20;1.55;;;11.90;99.90;;;;;;5056978;28;20443;-65
2022/09/26 02:21:33;;;;;;;2.85;1.02;;;11.90;99.90;;;;;;5005201;28;20048;-65
2022/09/26 02:24:00;;;;;;;4.63;0.95;;;11.90;99.90;;;;;;5038127;28;20127;-63
2022/09/26 02:26:27;;;;;;;5.07;1.23;;;11.80;99.90;;;;;;5036875;28;20095;-66
2022/09/26 02:28:55;;;;;;;8.63;1.35;;;11.70;99.90;;;;;;5056260;28;20055;-66
2022/09/26 02:31:23;;;;;;;3.72;1.00;;;11.70;99.90;;;;;;5063269;28;20044;-66
2022/09/26 02:33:51;;;;;;;3.63;1.48;;;11.60;99.90;;;;;;5056673;28;20049;-66
2022/09/26 02:36:18;;;;;;;7.32;1.60;;;11.60;99.90;;;;;;5032267;28;20364;-66
2022/09/26 02:38:45;;;;;;;3.15;1.23;;;11.50;99.90;;;;;;5053324;28;20045;-66
2022/09/26 02:41:28;;;;;;;3.05;1.10;;;11.50;99.90;;;;;;5066669;28;20090;-66
2022/09/26 02:44:20;;;;;;;7.65;1.40;;;11.50;99.90;;;;;;5035280;28;20060;-66
2022/09/26 02:47:05;;;;;;;2.63;1.10;;;11.50;99.90;;;;;;5047530;28;20049;-66
2022/09/26 02:49:44;;;;;;;3.03;1.30;;;11.50;99.90;;;;;;5037917;28;20133;-66
2022/09/26 02:52:20;;;;;;;3.85;1.10;;;11.50;99.90;;;;;;5065022;28;20088;-67
2022/09/26 02:55:20;;;;;;;8.93;1.33;;;11.50;99.90;;;;;;5055176;28;20507;-66
2022/09/26 02:58:34;;;;;;;2.50;1.08;;;11.50;99.90;;;;;;5043960;28;20385;-67
2022/09/26 03:01:34;;;;;;;4.90;1.60;;;11.50;99.90;;;;;;5015730;28;20508;-66
2022/09/26 03:04:21;;;;;;;3.08;0.90;;;11.60;99.90;;;;;;5041802;28;20057;-66
2022/09/26 03:06:51;;;;;;;10.05;1.40;;;11.60;99.90;;;;;;5054409;28;20055;-65
2022/09/26 03:09:18;;;;;;;2.65;1.33;;;11.60;99.90;;;;;;5020278;28;20144;-64
2022/09/26 03:11:45;;;;;;;4.25;1.40;;;11.60;99.90;;;;;;5046368;28;20514;-67
2022/09/26 03:14:11;;;;;;;4.70;1.60;;;11.60;99.90;;;;;;5035727;28;20055;-65
2022/09/26 03:16:39;;;;;;;3.80;1.33;;;11.60;99.90;;;;;;5061428;28;20124;-65
2022/09/26 03:19:28;;;;;;;4.63;1.05;;;11.70;99.90;;;;;;5039660;28;20127;-65
2022/09/26 03:21:58;;;;;;;6.97;1.17;;;11.70;99.90;;;;;;5032919;28;20579;-65
2022/09/26 03:24:26;;;;;;;3.30;1.17;;;11.70;99.90;;;;;;5037965;28;20068;-65
2022/09/26 03:26:54;;;;;;;3.03;1.23;;;11.70;99.90;;;;;;5060580;28;20508;-65
2022/09/26 03:29:20;;;;;;;6.03;1.58;;;11.70;99.90;;;;;;5040199;28;20052;-66
2022/09/26 03:31:49;;;;;;;3.45;1.38;;;11.80;99.90;;;;;;5023885;28;20047;-65
2022/09/26 03:34:16;;;;;;;5.25;1.08;;;11.80;99.90;;;;;;5059554;28;20492;-65
2022/09/26 03:36:44;;;;;;;4.68;1.35;;;11.80;99.90;;;;;;5056109;28;20041;-65
2022/09/26 03:39:13;;;;;;;5.78;1.33;;;11.90;99.90;;;;;;5061608;28;20412;-65
2022/09/26 03:41:41;;;;;;;5.63;1.63;;;11.80;99.90;;;;;;5020409;28;20090;-65
2022/09/26 03:44:07;;;;;;;8.68;1.73;;;11.70;99.90;;;;;;5064438;28;20450;-65
2022/09/26 03:46:34;;;;;;;4.13;1.42;;;11.60;99.90;;;;;;5061687;28;20051;-65
2022/09/26 03:49:05;;;;;;;7.47;2.05;;;11.50;99.90;;;;;;5046921;28;20461;-65
2022/09/26 03:51:32;;;;;;;4.85;1.00;;;11.30;99.90;;;;;;5062228;28;20127;-65
2022/09/26 03:53:59;;;;;;;3.38;1.40;;;11.30;99.90;;;;;;5042706;28;20052;-66
2022/09/26 03:56:26;;;;;;;4.20;1.27;;;11.30;99.90;;;;;;5061645;28;20094;-65
2022/09/26 03:58:52;;;;;;;7.28;1.80;;;11.20;99.90;;;;;;5063334;28;20051;-65
2022/09/26 04:01:21;;;;;;;3.35;2.03;;;11.20;99.90;;;;;;5072482;28;20077;-67
2022/09/26 04:03:48;;;;;;;6.32;1.50;;;11.20;99.90;;;;;;5049075;28;20040;-65
2022/09/26 04:06:18;;;;;;;3.95;0.95;;;11.20;99.90;;;;;;5054782;28;20048;-66
2022/09/26 04:08:47;;;;;;;4.75;1.40;;;11.20;99.90;;;;;;5060720;28;20055;-65
2022/09/26 04:11:15;;;;;;;3.15;1.10;;;11.20;99.90;;;;;;5054528;28;20048;-66
2022/09/26 04:13:42;;;;;;;8.48;1.27;;;11.20;99.90;;;;;;5070824;28;20049;-65
2022/09/26 04:16:19;;;;;;;5.45;0.95;;;11.20;99.90;;;;;;5054219;28;20057;-64
2022/09/26 04:18:46;;;;;;;4.90;1.17;;;11.20;99.90;;;;;;5061107;28;20059;-65
2022/09/26 04:21:13;;;;;;;3.50;0.82;;;11.10;99.90;;;;;;5055624;28;20049;-65
2022/09/26 04:23:41;;;;;;;9.20;2.03;;;11.10;99.90;;;;;;5028344;28;20059;-65
2022/09/26 04:26:11;;;;;;;2.28;0.82;;;11.10;99.90;;;;;;5063996;28;20052;-65
2022/09/26 04:28:39;;;;;;;5.15;1.23;;;11.10;99.90;;;;;;5067057;28;20049;-65
2022/09/26 04:31:06;;;;;;;3.13;1.02;;;11.10;99.90;;;;;;5046098;28;20407;-65
2022/09/26 04:33:33;;;;;;;6.40;1.45;;;11.10;99.90;;;;;;5069071;28;20048;-65
2022/09/26 04:36:01;;;;;;;2.95;1.13;;;11.10;99.90;;;;;;5062498;28;20048;-64
2022/09/26 04:38:31;;;;;;;3.28;1.55;;;11.20;99.90;;;;;;5052393;28;20123;-65
2022/09/26 04:41:03;;;;;;;2.70;1.17;;;11.20;99.90;;;;;;5043388;28;20048;-66
2022/09/26 04:43:30;;;;;;;6.38;1.40;;;11.30;99.90;;;;;;5052804;28;20051;-65
2022/09/26 04:45:57;;;;;;;2.13;0.90;;;11.30;99.90;;;;;;5043022;28;20056;-66
2022/09/26 04:48:24;;;;;;;4.78;1.20;;;11.30;99.90;;;;;;5053160;28;20052;-65
2022/09/26 04:50:50;;;;;;;1.77;0.80;;;11.30;99.90;;;;;;5060235;28;20560;-65
2022/09/26 04:53:18;;;;;;;5.07;0.73;;;11.30;99.90;;;;;;5071543;28;20053;-65
2022/09/26 04:55:45;;;;;;;5.13;1.50;;;11.30;99.90;;;;;;5065185;28;20055;-65
2022/09/26 04:58:12;;;;;;;4.38;1.10;;;11.40;99.90;;;;;;5051914;28;20045;-65
2022/09/26 05:00:44;;;;;;;6.00;0.95;;;11.40;99.90;;;;;;5056027;28;20492;-65
2022/09/26 05:03:14;;;;;;;1.90;0.80;;;11.40;99.90;;;;;;5071868;28;20048;-66
2022/09/26 05:05:43;;;;;;;4.13;1.20;;;11.40;99.90;;;;;;5042477;28;20548;-66
2022/09/26 05:08:11;;;;;;;4.88;1.00;;;11.50;99.90;;;;;;5058088;28;20127;-66
2022/09/26 05:10:37;;;;;;;4.32;0.90;;;11.50;99.90;;;;;;5048174;28;20129;-65
2022/09/26 05:13:04;;;;;;;5.72;1.27;;;11.50;99.90;;;;;;5055835;28;20045;-65
2022/09/26 05:15:32;;;;;;;2.88;0.93;;;11.60;99.90;;;;;;5050258;28;20119;-66
2022/09/26 05:17:59;;;;;;;3.05;1.20;;;11.60;99.90;;;;;;5071283;28;20131;-65
2022/09/26 05:20:30;;;;;;;3.72;1.30;;;11.60;99.90;;;;;;5070049;28;20052;-65
2022/09/26 05:22:57;;;;;;;6.38;1.50;;;11.60;99.90;;;;;;5069716;28;20047;-66
2022/09/26 05:28:10;;;;;;;5.70;1.25;;;11.70;99.90;;;;;;5055957;28;20052;-65
2022/09/26 05:30:39;;;;;;;1.67;0.70;;;11.70;99.90;;;;;;5053138;28;20056;-65
2022/09/26 05:33:06;;;;;;;4.57;1.10;;;11.80;99.90;;;;;;5067861;28;20488;-64
2022/09/26 05:35:34;;;;;;;1.17;0.77;;;11.80;99.90;;;;;;5053325;28;20045;-64
2022/09/26 05:38:01;;;;;;;5.65;0.93;;;11.80;99.90;;;;;;5050441;28;20075;-65
2022/09/26 05:43:15;;;;;;;5.75;0.68;;;11.90;99.90;;;;;;5050734;28;20071;-64
2022/09/26 05:45:41;;;;;;;5.78;0.93;;;12.00;99.90;;;;;;5048966;28;20407;-64
2022/09/26 05:48:08;;;;;;;3.22;0.95;;;12.00;99.90;;;;;;5046539;28;20075;-65
2022/09/26 05:50:35;;;;;;;4.15;1.10;;;12.00;99.90;;;;;;5056943;28;20048;-65
2022/09/26 05:53:09;;;;;;;2.75;0.90;;;12.00;99.90;;;;;;5066167;28;20041;-66
2022/09/26 05:55:36;;;;;;;2.38;0.93;;;12.10;99.90;;;;;;5037943;28;20497;-66
2022/09/26 05:58:05;;;;;;;3.38;0.90;;;12.10;99.90;;;;;;5066651;28;20041;-66
2022/09/26 06:00:32;;;;;;;1.33;0.90;;;12.20;99.90;;;;;;5005118;28;20053;-64
2022/09/26 06:03:02;;;;;;;6.55;0.80;;;12.20;99.90;;;;;;5049888;28;20143;-65
2022/09/26 06:05:33;;;;;;;5.22;1.10;;;12.20;99.90;;;;;;5037814;28;20147;-64
2022/09/26 06:08:00;;;;;;;2.95;0.98;;;12.30;99.90;;;;;;5049277;28;20040;-65
2022/09/26 06:10:29;;;;;;;1.95;0.88;;;12.30;99.90;;;;;;5054853;28;20124;-66
2022/09/26 06:13:01;;;;;;;3.90;0.90;;;12.30;99.90;;;;;;5050121;28;20044;-65
2022/09/26 06:15:34;;;;;;;2.10;0.50;;;12.40;99.90;;;;;;5061247;28;20054;-66
2022/09/26 06:18:03;;;;;;;2.17;0.80;;;12.40;99.90;;;;;;5064005;28;20137;-65
2022/09/26 06:20:35;;;;;;;1.27;0.52;;;12.40;99.90;;;;;;5026461;28;20143;-66
2022/09/26 06:23:02;;;;;;;5.60;0.80;;;12.40;99.90;;;;;;5049938;28;20044;-66
2022/09/26 06:25:29;;;;;;;2.33;0.80;;;12.50;99.90;;;;;;5057169;28;20476;-68
2022/09/26 06:27:59;;;;;;;2.25;0.80;;;12.50;99.90;;;;;;5060964;28;20540;-66
2022/09/26 06:30:26;;;;;;;4.35;1.17;;;12.50;99.90;;;;;;5029660;28;20084;-67
2022/09/26 06:32:53;;;;;;;2.22;0.90;;;12.50;99.90;;;;;;5047469;28;20048;-66
2022/09/26 06:35:20;;;;;;;7.45;0.90;;;12.50;99.90;;;;;;5045906;28;20136;-67
2022/09/26 06:37:47;;;;;;;5.90;1.08;;;12.50;99.90;;;;;;5044818;28;20499;-67
2022/09/26 06:40:15;;;;;;;3.95;0.70;;;12.50;99.90;;;;;;5015143;28;20131;-66
2022/09/26 06:42:42;;;;;;;2.92;0.80;;;12.50;99.90;;;;;;5064595;28;20047;-65
2022/09/26 06:45:09;;;;;;;2.15;0.90;;;12.50;99.90;;;;;;5027740;28;20060;-66
2022/09/26 06:47:36;;;;;;;3.33;1.95;;;12.60;99.90;;;;;;5031007;28;20415;-64
2022/09/26 06:50:07;;;;;;;1.83;0.80;;;12.60;99.90;;;;;;5042745;28;20144;-67
2022/09/26 06:52:35;;;;;;;2.38;0.90;;;12.60;99.90;;;;;;5044520;28;20408;-68
2022/09/26 06:55:02;;;;;;;1.05;0.70;;;12.60;99.90;;;;;;5047259;28;20122;-67
2022/09/26 06:57:36;;;;;;;0.88;0.65;;;12.60;99.90;;;;;;5041048;28;20049;-66
2022/09/26 07:00:03;;;;;;;1.83;0.85;;;12.70;99.90;;;;;;5022925;28;20380;-67
2022/09/26 07:02:34;;;;;;;3.55;0.93;;;12.70;99.90;;;;;;5044404;28;20742;-69
2022/09/26 07:05:04;;;;;;;4.57;0.80;;;12.70;99.90;;;;;;5033863;28;20053;-70
2022/09/26 07:07:31;;;;;;;2.63;1.10;;;12.70;99.90;;;;;;5013564;28;20079;-69
2022/09/26 07:09:58;;;;;;;0.80;0.40;;;12.70;99.90;;;;;;5029921;28;20053;-69
2022/09/26 07:12:27;;;;;;;2.22;1.08;;;12.80;99.90;;;;;;5064715;28;20393;-66
2022/09/26 07:14:56;;;;;;;1.48;0.60;;;12.70;99.90;;;;;;5063439;28;20057;-69
2022/09/26 07:17:26;;;;;;;1.88;0.98;;;12.80;99.90;;;;;;5044989;28;20389;-68
2022/09/26 07:19:53;;;;;;;3.10;1.15;;;12.80;99.90;;;;;;5064073;28;20106;-68
2022/09/26 07:22:20;;;;;;;5.93;0.98;;;12.80;99.90;;;;;;5016487;28;20052;-66
2022/09/26 07:24:49;;;;;;;10.45;1.35;;;12.80;99.90;;;;;;5067361;28;20500;-66
2022/09/26 07:27:17;;;;;;;4.45;1.20;;;12.80;99.90;;;;;;5076794;28;20049;-70
2022/09/26 07:29:47;;;;;;;3.08;1.02;;;12.80;99.90;;;;;;5038686;28;20045;-67
2022/09/26 07:32:15;;;;;;;3.72;0.85;;;12.80;99.90;;;;;;5067084;28;20477;-71
2022/09/26 07:34:42;;;;;;;3.28;0.70;;;12.80;99.90;;;;;;5048027;28;20047;-69
2022/09/26 07:37:09;;;;;;;3.72;1.00;;;12.90;99.90;;;;;;5055766;28;20060;-66
2022/09/26 07:39:39;;;;;;;2.58;0.80;;;12.90;99.90;;;;;;5055478;28;20135;-66
2022/09/26 07:42:06;;;;;;;4.45;1.13;;;12.90;99.90;;;;;;5050112;28;20107;-67
2022/09/26 07:44:32;;;;;;;2.92;1.35;;;12.80;99.90;;;;;;5039442;28;20045;-64
2022/09/26 07:50:15;;;;;;;4.20;0.85;;;13.00;99.90;;;;;;5058577;28;20415;-68
2022/09/26 07:52:45;;;;;;;2.20;0.90;;;13.00;99.90;;;;;;5075470;28;20048;-67
2022/09/26 07:55:16;;;;;;;7.68;1.70;;;13.00;99.90;;;;;;5070915;28;20127;-66
2022/09/26 07:57:45;;;;;;;6.82;1.15;;;13.00;99.90;;;;;;5044654;28;20510;-69
2022/09/26 08:00:15;;;;;;;5.47;1.02;;;13.00;99.90;;;;;;5050177;28;20124;-65
2022/09/26 08:02:45;;;;;;;7.47;1.50;;;13.00;99.90;;;;;;5037128;28;20583;-67
2022/09/26 08:05:16;;;;;;;3.30;1.20;;;13.00;99.90;;;;;;5019373;28;20059;-66
2022/09/26 08:07:44;;;;;;;7.18;2.13;;;13.00;99.90;;;;;;5061834;28;20482;-65
2022/09/26 08:10:21;;;;;;;5.28;1.25;;;13.00;99.90;;;;;;5018494;28;20045;-66
2022/09/26 08:12:49;;;;;;;5.30;1.50;;;13.10;99.90;;;;;;5044418;28;20045;-66
2022/09/26 08:15:20;;;;;;;3.75;1.15;;;13.10;99.90;;;;;;5052338;28;20045;-65
2022/09/26 08:17:46;;;;;;;4.70;1.50;;;13.10;99.90;;;;;;5033390;28;20052;-66
2022/09/26 08:20:13;;;;;;;5.35;1.48;;;13.20;99.90;;;;;;5071013;28;20131;-67
2022/09/26 08:22:40;;;;;;;4.30;1.52;;;13.20;99.90;;;;;;5058999;28;20051;-67
2022/09/26 08:25:08;;;;;;;9.70;1.60;;;13.20;99.90;;;;;;5054613;28;20053;-68
2022/09/26 08:27:35;;;;;;;7.03;1.50;;;13.30;99.90;;;;;;5041805;28;20056;-66
2022/09/26 08:30:03;;;;;;;6.68;1.70;;;13.40;99.90;;;;;;5072316;28;20044;-67
2022/09/26 08:32:31;;;;;;;9.80;1.58;;;13.50;99.90;;;;;;5042929;28;20053;-67
2022/09/26 08:34:59;;;;;;;7.20;3.13;;;13.50;99.90;;;;;;5053922;28;20056;-65
2022/09/26 08:37:27;;;;;;;10.13;3.15;;;13.50;99.90;;;;;;5049755;28;20045;-63
2022/09/26 08:39:54;;;;;;;17.45;1.83;;;13.50;99.90;;;;;;5033765;28;20049;-66
2022/09/26 08:42:40;;;;;;;14.35;2.83;;;13.50;99.90;;;;;;5037194;28;20454;-67
2022/09/26 08:48:58;;;;;;;14.82;2.42;;;13.30;99.90;;;;;;5049185;28;20523;-68
2022/09/26 08:51:36;;;;;;;;;;;13.30;99.90;;;;;;5035056;28;20080;-67
2022/09/26 08:54:16;;;;;;;12.98;3.35;;;13.40;99.90;;;;;;5034324;28;20529;-65
2022/09/26 08:56:53;;;;;;;13.93;3.92;;;13.50;99.90;;;;;;5035832;28;20136;-66
2022/09/26 08:59:37;;;;;;;12.65;2.67;;;13.70;99.90;;;;;;5037731;28;20151;-67
2022/09/26 09:02:12;;;;;;;15.85;2.75;;;13.90;99.90;;;;;;5053439;28;20053;-66
2022/09/26 09:04:43;;;;;;;14.00;3.33;;;14.10;99.90;;;;;;5047145;28;20045;-63
2022/09/26 09:07:22;;;;;;;15.82;3.63;;;13.90;99.90;;;;;;5062436;28;20128;-63
2022/09/26 09:09:50;;;;;;;17.75;3.45;;;14.00;99.90;;;;;;5057093;28;20459;-64
2022/09/26 09:12:36;;;;;;;14.43;2.88;;;14.20;99.90;;;;;;5066373;28;20056;-64
2022/09/26 09:15:18;;;;;;;19.98;3.55;;;14.30;99.90;;;;;;5056815;28;20056;-64
2022/09/26 09:18:29;;;;;;;19.25;4.10;;;14.30;99.90;;;;;;5065456;28;20049;-64
2022/09/26 09:21:17;;;;;;;17.15;3.55;;;14.30;99.90;;;;;;5055341;28;20094;-65
2022/09/26 09:23:56;;;;;;;23.75;5.30;;;14.20;99.90;;;;;;5049391;28;20523;-64
2022/09/26 09:27:14;;;;;;;18.55;3.90;;;14.30;99.90;;;;;;5035670;28;20075;-65
2022/09/26 09:30:18;;;;;;;18.52;3.20;;;14.40;99.90;;;;;;5040099;28;20080;-66
2022/09/26 09:33:34;;;;;;;20.98;3.92;;;14.50;99.90;;;;;;5053731;28;20052;-65
2022/09/26 09:36:41;;;;;;;28.45;4.18;;;14.60;99.90;;;;;;5016035;28;20438;-66
2022/09/26 09:39:12;;;;;;;26.90;4.85;;;14.70;99.90;;;;;;5000679;28;20070;-65
2022/09/26 09:41:46;;;;;;;14.73;3.35;;;14.60;99.90;;;;;;4974786;28;20120;-65
2022/09/26 09:44:31;;;;;;;24.88;4.25;;;14.50;99.90;;;;;;5017609;28;20567;-64
2022/09/26 09:46:59;;;;;;;27.05;5.25;;;14.50;99.90;;;;;;5055687;28;20071;-64
2022/09/26 09:49:26;;;;;;;26.10;4.82;;;14.50;99.90;;;;;;5028394;28;20495;-64
2022/09/26 09:52:30;;;;;;;15.88;3.85;;;14.50;99.90;;;;;;5041057;28;20091;-64
2022/09/26 09:55:15;;;;;;;24.02;4.72;;;14.50;99.90;;;;;;5064861;28;20424;-64
2022/09/26 09:57:45;;;;;;;29.35;5.03;;;14.50;99.90;;;;;;5038542;28;20049;-65
2022/09/26 10:00:24;;;;;;;30.02;5.50;;;14.60;99.90;;;;;;5047238;28;20051;-64
2022/09/26 10:03:19;;;;;;;31.67;4.88;;;14.50;99.90;;;;;;5040122;28;20048;-64
2022/09/26 10:05:54;;;;;;;25.40;4.20;;;14.60;99.90;;;;;;5050866;28;20049;-63
2022/09/26 10:08:30;;;;;;;23.45;4.28;;;14.60;99.90;;;;;;5022438;28;20631;-63
2022/09/26 10:11:22;;;;;;;27.77;5.28;;;14.60;99.90;;;;;;5039498;28;20064;-63
2022/09/26 10:13:55;;;;;;;22.52;4.75;;;14.50;99.90;;;;;;5024407;28;20060;-64
2022/09/26 10:16:23;;;;;;;23.70;5.22;;;14.40;99.90;;;;;;5043940;28;20060;-64
2022/09/26 10:19:07;;;;;;;25.38;5.13;;;14.40;99.90;;;;;;5058329;28;20056;-64
2022/09/26 10:21:38;;;;;;;21.60;4.05;;;14.50;99.90;;;;;;5024339;28;20052;-64
2022/09/26 10:24:21;;;;;;;23.65;4.38;;;14.50;99.90;;;;;;5058396;28;20061;-64
2022/09/26 10:26:49;;;;;;;22.38;4.10;;;14.40;99.90;;;;;;5045368;28;20045;-64
2022/09/26 10:29:24;;;;;;;27.48;4.47;;;14.40;99.90;;;;;;5057226;28;20468;-65
2022/09/26 10:31:55;;;;;;;18.73;3.97;;;14.50;99.90;;;;;;5027842;28;20065;-63
2022/09/26 10:34:27;;;;;;;17.35;4.07;;;14.70;99.90;;;;;;5041240;28;20454;-64
2022/09/26 10:36:57;;;;;;;22.45;5.35;;;14.80;99.90;;;;;;5021196;28;20569;-63
2022/09/26 10:42:21;;;;;;;31.67;4.30;;;14.70;99.90;;;;;;5046787;28;20420;-64
2022/09/26 10:44:49;;;;;;;21.63;4.57;;;14.70;99.90;;;;;;5057001;28;20048;-63
2022/09/26 10:47:18;;;;;;;30.08;5.07;;;14.80;99.90;;;;;;5043695;28;20053;-65
2022/09/26 10:49:51;;;;;;;19.92;4.60;;;14.80;99.90;;;;;;5056960;28;20087;-65
2022/09/26 10:52:24;;;;;;;20.13;4.22;;;14.90;99.90;;;;;;5019771;28;20132;-64
2022/09/26 10:54:59;;;;;;;25.20;4.43;;;15.00;99.90;;;;;;5040543;28;20551;-64
2022/09/26 10:57:32;;;;;;;28.13;5.50;;;15.20;99.90;;;;;;5044609;28;20049;-63
2022/09/26 10:59:59;;;;;;;23.50;4.55;;;15.30;99.90;;;;;;5037021;28;20063;-63
2022/09/26 11:02:26;;;;;;;38.33;6.75;;;15.50;99.90;;;;;;5035535;28;20159;-64
2022/09/26 11:07:46;;;;;;;24.15;4.40;;;15.60;99.90;;;;;;5039954;28;20057;-64
2022/09/26 11:10:16;;;;;;;40.88;6.28;;;15.50;99.90;;;;;;5056162;28;20387;-65
2022/09/26 11:13:23;;;;;;;18.65;4.88;;;15.30;99.90;;;;;;5020462;28;20087;-64
2022/09/26 11:16:01;;;;;;;16.08;4.32;;;15.00;99.90;;;;;;5053840;28;20045;-63
2022/09/26 11:18:50;;;;;;;18.10;4.15;;;15.00;99.90;;;;;;5048549;28;20070;-64
2022/09/26 11:21:40;;;;;;;24.42;4.55;;;15.00;99.90;;;;;;5053981;28;20076;-65
2022/09/26 11:24:14;;;;;;;24.13;4.10;;;15.10;99.90;;;;;;5053547;28;20060;-64
2022/09/26 11:27:19;;;;;;;19.40;4.43;;;15.30;99.90;;;;;;5055627;28;20544;-64
2022/09/26 11:30:08;;;;;;;20.70;3.85;;;15.50;99.90;;;;;;5064600;28;20048;-64
2022/09/26 11:32:41;;;;;;;16.70;3.72;;;15.40;99.90;;;;;;5038617;28;20044;-64
2022/09/26 11:35:21;;;;;;;15.20;3.83;;;15.40;99.90;;;;;;5065502;28;20518;-63
2022/09/26 11:38:10;;;;;;;20.52;3.85;;;15.30;99.90;;;;;;5050655;28;20047;-63
2022/09/26 11:40:39;;;;;;;16.58;3.30;;;15.30;99.90;;;;;;5049800;28;20048;-64
2022/09/26 11:44:03;;;;;;;15.82;4.15;;;15.30;99.90;;;;;;5067931;28;20049;-64
2022/09/26 11:46:38;;;;;;;15.40;3.00;;;15.30;99.90;;;;;;4990765;28;20058;-64
2022/09/26 11:49:23;;;;;;;19.17;3.40;;;15.30;99.90;;;;;;5002277;28;20045;-64
2022/09/26 11:52:32;;;;;;;14.90;3.20;;;15.30;99.90;;;;;;5008198;28;20071;-64
2022/09/26 11:55:25;;;;;;;16.30;4.18;;;15.40;99.90;;;;;;5046164;28;20132;-64
2022/09/26 11:58:16;;;;;;;13.90;2.88;;;15.40;99.90;;;;;;5053784;28;20076;-64
2022/09/26 12:00:50;;;;;;;13.82;3.10;;;15.50;99.90;;;;;;5017762;28;20560;-64
2022/09/26 12:03:34;;;;;;;15.23;2.75;;;15.50;99.90;;;;;;5022794;28;20053;-65
2022/09/26 12:07:06;;;;;;;11.15;2.47;;;15.50;99.90;;;;;;5063437;28;20056;-65
2022/09/26 12:09:46;;;;;;;15.80;2.88;;;15.50;99.90;;;;;;4904334;28;20083;-65
2022/09/26 12:12:23;;;;;;;10.60;3.38;;;15.70;99.90;;;;;;5053350;28;20075;-64
2022/09/26 12:15:19;;;;;;;7.35;1.83;;;15.70;99.90;;;;;;5063021;28;20058;-65
2022/09/26 12:18:21;;;;;;;11.45;2.75;;;15.40;99.90;;;;;;5052178;28;20049;-65
2022/09/26 12:21:11;;;;;;;8.80;1.83;;;15.30;99.90;;;;;;5020561;28;20110;-64
2022/09/26 12:23:52;;;;;;;15.85;2.80;;;15.30;99.90;;;;;;5020424;28;20144;-64
2022/09/26 12:26:48;;;;;;;10.45;2.70;;;15.20;99.90;;;;;;5028271;28;20462;-65
2022/09/26 12:29:48;;;;;;;7.10;1.95;;;15.20;99.90;;;;;;5037672;28;20049;-64
2022/09/26 12:32:26;;;;;;;10.93;2.47;;;14.90;99.90;;;;;;5048292;28;20110;-64
2022/09/26 12:35:19;;;;;;;13.60;2.53;;;14.60;99.90;;;;;;5066149;28;20491;-64
2022/09/26 12:38:04;;;;;;;10.75;1.85;;;14.60;99.90;;;;;;5038229;28;20473;-65
2022/09/26 12:40:50;;;;;;;11.57;2.67;;;14.20;99.90;;;;;;5063002;28;20080;-65
2022/09/26 12:43:39;;;;;;;11.00;1.95;;;13.90;99.90;;;;;;5056090;28;20045;-66
2022/09/26 12:46:25;;;;;;;13.40;1.90;;;13.80;99.90;;;;;;5043050;28;20386;-64
2022/09/26 12:49:24;;;;;;;9.88;2.72;;;13.80;99.90;;;;;;5054012;28;20503;-64
2022/09/26 12:51:54;;;;;;;8.18;1.70;;;13.90;99.90;;;;;;5060268;28;20041;-64
2022/09/26 12:54:28;;;;;;;5.07;1.50;;;14.00;99.90;;;;;;5071651;28;20206;-63
2022/09/26 12:57:04;;;;;;;10.73;2.75;;;14.20;99.90;;;;;;5041725;28;20048;-63
2022/09/26 12:59:37;;;;;;;5.15;1.15;;;14.30;99.90;;;;;;5071834;28;20063;-64
2022/09/26 13:02:22;;;;;;;2.80;1.20;;;14.30;99.90;;;;;;5059477;28;20416;-63
2022/09/26 13:05:26;;;;;;;5.18;1.30;;;14.40;99.90;;;;;;5071083;28;20131;-65
2022/09/26 13:08:24;;;;;;;4.95;1.40;;;14.70;99.90;;;;;;5007410;28;20369;-65
2022/09/26 13:11:02;;;;;;;4.93;1.27;;;14.80;99.90;;;;;;5040042;28;20051;-63
2022/09/26 13:13:36;;;;;;;8.52;1.70;;;14.70;99.90;;;;;;5042462;28;20049;-64
2022/09/26 13:16:03;;;;;;;;;;;14.70;99.90;;;;;;5038710;28;20048;-63
2022/09/26 13:18:43;;;;;;;6.45;1.40;;;14.70;99.90;;;;;;5063091;28;19926;-64
2022/09/26 13:21:20;;;;;;;10.90;1.60;;;14.60;99.90;;;;;;5021714;28;20053;-63
2022/09/26 13:23:56;;;;;;;11.68;2.88;;;14.60;99.90;;;;;;5041158;28;20084;-64
2022/09/26 13:26:35;;;;;;;15.65;1.90;;;14.60;99.90;;;;;;5007671;28;20411;-64
2022/09/26 13:29:09;;;;;;;5.15;1.60;;;14.70;99.90;;;;;;5046179;28;20520;-64
2022/09/26 13:31:54;;;;;;;7.28;1.77;;;14.80;99.90;;;;;;5043376;28;20456;-63
2022/09/26 13:34:28;;;;;;;7.35;1.70;;;14.80;99.90;;;;;;5058681;28;20132;-63
2022/09/26 13:36:57;;;;;;;10.88;2.28;;;14.80;99.90;;;;;;5035845;28;20471;-64
2022/09/26 13:39:51;;;;;;;7.70;1.33;;;15.10;99.90;;;;;;5034824;28;20053;-65
2022/09/26 13:42:28;;;;;;;5.80;1.40;;;15.10;99.90;;;;;;5035169;28;20067;-63